Time;durP1;ratioP1;P1;durP2;ratioP2;P2;SDS_P1;SDS_P2;PMS_P1;PMS_P2;Temp;Humidity;BMP_temperature;BMP_pressure;BME280_temperature;BME280_humidity;BME280_pressure;Samples;Min_cycle;Max_cycle;Signal;HPM_P1;HPM_P2
2022/10/24 00:02:16;;;;;;;12.27;3.97;;;16.40;99.90;;;;;;5095108;28;20043;-79
2022/10/24 00:04:42;;;;;;;11.82;4.70;;;16.50;99.90;;;;;;5095520;28;20030;-80
2022/10/24 00:07:08;;;;;;;13.05;4.15;;;16.50;99.90;;;;;;5095232;28;20107;-80
2022/10/24 00:09:34;;;;;;;15.70;5.53;;;16.60;99.90;;;;;;5095060;28;20032;-80
2022/10/24 00:12:01;;;;;;;18.48;7.18;;;16.80;99.90;;;;;;5095093;28;20039;-81
2022/10/24 00:14:27;;;;;;;22.13;9.13;;;17.10;99.90;;;;;;5095120;28;20126;-80
2022/10/24 00:16:52;;;;;;;11.05;4.18;;;17.30;99.90;;;;;;5094858;28;20129;-80
2022/10/24 00:19:18;;;;;;;10.77;4.45;;;17.20;99.90;;;;;;5095145;28;20024;-80
2022/10/24 00:21:44;;;;;;;11.15;3.40;;;17.10;99.90;;;;;;5095213;28;20031;-80
2022/10/24 00:24:09;;;;;;;12.23;3.88;;;17.00;99.90;;;;;;5095025;28;20085;-80
2022/10/24 00:26:35;;;;;;;9.43;3.47;;;16.90;99.90;;;;;;5094904;28;20495;-80
2022/10/24 00:29:01;;;;;;;5.45;2.85;;;17.00;99.90;;;;;;5094894;28;20111;-79
2022/10/24 00:31:27;;;;;;;11.48;3.47;;;16.90;99.90;;;;;;5094285;28;20023;-79
2022/10/24 00:33:53;;;;;;;10.30;3.45;;;16.90;99.90;;;;;;5094771;28;20047;-80
2022/10/24 00:36:21;;;;;;;22.73;7.18;;;17.00;99.90;;;;;;5094699;28;20024;-79
2022/10/24 00:38:47;;;;;;;14.93;7.10;;;17.30;99.90;;;;;;5094799;28;20028;-80
2022/10/24 00:41:23;;;;;;;24.48;7.97;;;17.60;99.90;;;;;;5094640;28;20032;-80
2022/10/24 00:43:49;;;;;;;23.58;10.10;;;18.20;99.90;;;;;;5094548;28;20543;-80
2022/10/24 00:46:16;;;;;;;28.00;11.18;;;18.40;99.90;;;;;;5094183;28;20118;-80
2022/10/24 00:48:52;;;;;;;27.90;11.85;;;18.50;99.90;;;;;;5094633;28;20024;-80
2022/10/24 00:51:23;;;;;;;25.50;11.63;;;18.60;99.90;;;;;;5094491;28;20361;-80
2022/10/24 00:53:52;;;;;;;25.20;9.77;;;18.70;99.90;;;;;;5094396;28;20031;-79
2022/10/24 00:56:21;;;;;;;29.55;13.57;;;18.50;99.90;;;;;;5094344;28;20020;-80
2022/10/24 00:58:50;;;;;;;33.72;13.95;;;18.60;99.90;;;;;;5094290;28;20400;-80
2022/10/24 01:01:16;;;;;;;34.08;14.13;;;18.80;99.90;;;;;;5093914;28;20495;-80
2022/10/24 01:03:42;;;;;;;35.67;14.95;;;18.80;99.90;;;;;;5092957;28;20028;-80
2022/10/24 01:06:22;;;;;;;31.42;14.27;;;18.90;99.90;;;;;;5094235;28;20476;-80
2022/10/24 01:09:08;;;;;;;34.22;13.95;;;19.00;99.90;;;;;;5094202;28;20092;-79
2022/10/24 01:12:01;;;;;;;31.75;14.10;;;19.00;99.90;;;;;;5094134;28;20024;-79
2022/10/24 01:14:46;;;;;;;37.05;14.13;;;19.00;99.90;;;;;;5093691;28;20043;-80
2022/10/24 01:17:40;;;;;;;31.35;14.07;;;19.10;99.90;;;;;;5093963;28;20480;-79
2022/10/24 01:20:24;;;;;;;14.85;4.68;;;19.10;99.90;;;;;;5093976;28;20361;-79
2022/10/24 01:23:01;;;;;;;11.70;3.25;;;18.40;99.90;;;;;;5093902;28;20047;-79
2022/10/24 01:26:05;;;;;;;5.40;2.60;;;17.60;99.90;;;;;;5093883;28;20019;-80
2022/10/24 01:28:55;;;;;;;11.82;3.15;;;17.40;99.90;;;;;;5093663;28;20380;-79
2022/10/24 01:31:28;;;;;;;7.57;2.60;;;17.30;99.90;;;;;;5093557;28;20019;-80
2022/10/24 01:34:02;;;;;;;8.85;2.63;;;17.30;99.90;;;;;;5093670;28;20078;-80
2022/10/24 01:36:35;;;;;;;4.93;2.03;;;17.20;99.90;;;;;;5093515;28;20365;-80
2022/10/24 01:39:04;;;;;;;5.70;2.22;;;17.10;99.90;;;;;;5093570;28;20043;-80
2022/10/24 01:41:32;;;;;;;8.30;3.60;;;17.10;99.90;;;;;;5093484;28;20036;-79
2022/10/24 01:44:14;;;;;;;11.02;3.60;;;17.20;99.90;;;;;;5093215;28;20028;-80
2022/10/24 01:46:45;;;;;;;6.88;2.90;;;17.30;99.90;;;;;;5093436;28;20020;-80
2022/10/24 01:49:20;;;;;;;9.32;3.17;;;17.40;99.90;;;;;;5093520;28;20023;-79
2022/10/24 01:51:49;;;;;;;13.65;4.20;;;17.30;99.90;;;;;;5093274;28;20058;-80
2022/10/24 01:54:15;;;;;;;14.95;5.90;;;17.50;99.90;;;;;;5093376;28;20039;-80
2022/10/24 01:56:41;;;;;;;15.60;5.68;;;17.60;99.90;;;;;;5093236;28;20028;-80
2022/10/24 01:59:27;;;;;;;17.75;7.05;;;17.90;99.90;;;;;;5092863;28;20035;-80
2022/10/24 02:02:04;;;;;;;25.90;8.02;;;18.30;99.90;;;;;;5092830;28;20109;-79
2022/10/24 02:04:32;;;;;;;22.63;8.55;;;18.30;99.90;;;;;;5093222;28;20443;-80
2022/10/24 02:07:03;;;;;;;23.00;9.35;;;18.50;99.90;;;;;;5093118;28;20032;-80
2022/10/24 02:09:32;;;;;;;19.98;9.25;;;18.60;99.90;;;;;;5093158;28;20384;-79
2022/10/24 02:11:59;;;;;;;19.73;7.63;;;18.70;99.90;;;;;;5092697;28;20028;-79
2022/10/24 02:14:32;;;;;;;23.70;9.27;;;18.70;99.90;;;;;;5092767;28;20054;-79
2022/10/24 02:17:02;;;;;;;12.70;5.70;;;18.70;99.90;;;;;;5092927;28;20035;-80
2022/10/24 02:19:31;;;;;;;12.70;3.92;;;18.30;99.90;;;;;;5092916;28;20024;-80
2022/10/24 02:22:18;;;;;;;16.48;4.47;;;18.10;99.90;;;;;;5092942;28;20057;-80
2022/10/24 02:25:06;;;;;;;8.48;3.13;;;18.00;99.90;;;;;;5093043;28;20082;-80
2022/10/24 02:27:43;;;;;;;13.10;4.05;;;18.10;99.90;;;;;;5092544;28;20024;-80
2022/10/24 02:30:15;;;;;;;13.93;3.50;;;18.10;99.90;;;;;;5092874;28;20426;-78
2022/10/24 02:32:45;;;;;;;17.00;4.72;;;18.10;99.90;;;;;;5092495;28;20523;-79
2022/10/24 02:35:14;;;;;;;13.80;5.85;;;17.90;99.90;;;;;;5092728;28;20039;-79
2022/10/24 02:37:46;;;;;;;13.15;4.38;;;17.80;99.90;;;;;;5092641;28;20069;-79
2022/10/24 02:40:14;;;;;;;12.73;4.53;;;17.60;99.90;;;;;;5092739;28;20039;-79
2022/10/24 02:42:42;;;;;;;12.93;4.40;;;17.50;99.90;;;;;;5092223;28;20027;-79
2022/10/24 02:45:11;;;;;;;15.95;4.07;;;17.40;99.90;;;;;;5092702;28;20016;-79
2022/10/24 02:47:39;;;;;;;9.90;3.60;;;17.40;99.90;;;;;;5092586;28;20047;-79
2022/10/24 02:50:06;;;;;;;11.82;4.75;;;17.50;99.90;;;;;;5092851;28;20388;-79
2022/10/24 02:52:33;;;;;;;12.57;5.13;;;17.70;99.90;;;;;;5092557;28;20174;-79
2022/10/24 02:54:58;;;;;;;12.90;5.13;;;17.70;99.90;;;;;;5092659;28;20036;-79
2022/10/24 02:57:25;;;;;;;20.75;7.63;;;17.80;99.90;;;;;;5092154;28;20024;-79
2022/10/24 02:59:52;;;;;;;19.63;8.07;;;18.00;99.90;;;;;;5092490;28;20067;-79
2022/10/24 03:02:18;;;;;;;27.30;11.18;;;18.20;99.90;;;;;;5092512;28;20085;-79
2022/10/24 03:04:43;;;;;;;25.23;11.63;;;18.50;99.90;;;;;;5092535;28;20028;-79
2022/10/24 03:07:09;;;;;;;27.00;12.30;;;18.80;99.90;;;;;;5092408;28;20024;-79
2022/10/24 03:09:35;;;;;;;25.13;10.27;;;18.90;99.90;;;;;;5092304;28;20031;-79
2022/10/24 03:12:00;;;;;;;31.27;11.55;;;19.00;99.90;;;;;;5091798;28;20050;-79
2022/10/24 03:14:26;;;;;;;35.90;12.30;;;19.00;99.90;;;;;;5092949;28;20027;-79
2022/10/24 03:16:52;;;;;;;21.17;11.77;;;19.10;99.90;;;;;;5096360;28;20107;-79
2022/10/24 03:19:17;;;;;;;25.60;11.73;;;19.20;99.90;;;;;;5096292;28;20472;-79
2022/10/24 03:21:43;;;;;;;26.33;11.48;;;19.20;99.90;;;;;;5096247;28;20016;-79
2022/10/24 03:24:09;;;;;;;26.13;12.00;;;19.30;99.90;;;;;;5096138;28;20032;-80
2022/10/24 03:26:34;;;;;;;29.67;11.25;;;19.30;99.90;;;;;;5095728;28;20043;-79
2022/10/24 03:29:00;;;;;;;27.15;11.60;;;19.30;99.90;;;;;;5096136;28;20031;-79
2022/10/24 03:31:26;;;;;;;27.60;10.85;;;19.30;99.90;;;;;;5095800;28;20476;-80
2022/10/24 03:33:51;;;;;;;23.55;11.90;;;19.30;99.90;;;;;;5096004;28;20086;-79
2022/10/24 03:36:17;;;;;;;28.67;11.93;;;19.30;99.90;;;;;;5095853;28;20024;-79
2022/10/24 03:38:43;;;;;;;26.90;11.30;;;19.30;99.90;;;;;;5095869;28;20028;-79
2022/10/24 03:41:08;;;;;;;25.85;11.60;;;19.40;99.90;;;;;;5095556;28;20048;-79
2022/10/24 03:43:34;;;;;;;25.52;11.45;;;19.40;99.90;;;;;;5095939;28;20028;-79
2022/10/24 03:46:00;;;;;;;30.00;10.55;;;19.40;99.90;;;;;;5095827;28;20082;-80
2022/10/24 03:48:26;;;;;;;27.92;10.43;;;19.50;99.90;;;;;;5095666;28;20028;-80
2022/10/24 03:50:51;;;;;;;28.92;11.45;;;19.40;99.90;;;;;;5095694;28;20078;-79
2022/10/24 03:53:17;;;;;;;30.75;11.95;;;19.50;99.90;;;;;;5095508;28;20047;-80
2022/10/24 03:55:42;;;;;;;26.92;11.60;;;19.50;99.90;;;;;;5095257;28;20030;-80
2022/10/24 03:58:08;;;;;;;32.97;11.75;;;19.70;99.90;;;;;;5095490;28;20395;-80
2022/10/24 04:00:38;;;;;;;24.85;11.50;;;19.60;99.90;;;;;;5095493;28;20020;-80
2022/10/24 04:03:04;;;;;;;23.00;10.15;;;19.60;99.90;;;;;;5095344;28;20503;-80
2022/10/24 04:05:29;;;;;;;26.35;11.05;;;19.60;99.90;;;;;;5095424;28;20056;-80
2022/10/24 04:07:55;;;;;;;20.83;10.07;;;19.60;99.90;;;;;;5094038;28;20062;-80
2022/10/24 04:10:20;;;;;;;25.58;11.40;;;19.60;99.90;;;;;;5094949;28;20028;-80
2022/10/24 04:12:46;;;;;;;31.45;11.85;;;19.60;99.90;;;;;;5095013;28;20036;-80
2022/10/24 04:15:12;;;;;;;30.48;11.55;;;19.70;99.90;;;;;;5095138;28;20024;-80
2022/10/24 04:17:37;;;;;;;25.58;11.52;;;19.80;99.90;;;;;;5093775;28;20132;-80
2022/10/24 04:20:04;;;;;;;36.28;12.05;;;19.80;99.90;;;;;;5095216;28;20043;-80
2022/10/24 04:22:29;;;;;;;24.13;10.73;;;19.90;99.90;;;;;;5095039;28;20036;-80
2022/10/24 04:24:55;;;;;;;25.70;11.95;;;19.80;99.90;;;;;;5094447;28;20028;-80
2022/10/24 04:27:20;;;;;;;24.52;11.00;;;19.80;99.90;;;;;;5094875;28;20028;-80
2022/10/24 04:29:46;;;;;;;27.92;11.35;;;19.70;99.90;;;;;;5094893;28;20468;-80
2022/10/24 04:32:12;;;;;;;24.95;10.85;;;19.60;99.90;;;;;;5094572;28;20048;-81
2022/10/24 04:34:37;;;;;;;23.60;11.45;;;19.60;99.90;;;;;;5094878;28;20466;-80
2022/10/24 04:37:03;;;;;;;26.25;12.13;;;19.60;99.90;;;;;;5093528;28;20103;-80
2022/10/24 04:39:29;;;;;;;24.27;10.95;;;19.70;99.90;;;;;;5094399;28;20028;-80
2022/10/24 04:41:54;;;;;;;24.73;11.35;;;19.70;99.90;;;;;;5094707;28;20027;-80
2022/10/24 04:44:20;;;;;;;25.00;12.27;;;19.60;99.90;;;;;;5094564;28;20503;-80
2022/10/24 04:46:45;;;;;;;30.95;11.90;;;19.70;99.90;;;;;;5094469;28;20027;-80
2022/10/24 04:49:11;;;;;;;27.63;11.10;;;19.70;99.90;;;;;;5094465;28;20020;-80
2022/10/24 04:51:37;;;;;;;23.20;9.55;;;19.60;99.90;;;;;;5094127;28;20507;-79
2022/10/24 04:54:03;;;;;;;27.80;11.35;;;19.60;99.90;;;;;;5094393;28;20115;-80
2022/10/24 04:56:28;;;;;;;25.35;10.65;;;19.70;99.90;;;;;;5094326;28;20031;-80
2022/10/24 04:58:54;;;;;;;23.65;10.73;;;19.60;99.90;;;;;;5094410;28;20039;-80
2022/10/24 05:01:19;;;;;;;30.02;10.82;;;19.60;99.90;;;;;;5092866;28;20058;-80
2022/10/24 05:03:45;;;;;;;26.67;11.25;;;19.60;99.90;;;;;;5094324;28;20028;-80
2022/10/24 05:06:11;;;;;;;23.17;11.02;;;19.70;99.90;;;;;;5094076;28;20024;-79
2022/10/24 05:08:36;;;;;;;24.42;10.82;;;19.70;99.90;;;;;;5094140;28;20024;-80
2022/10/24 05:11:02;;;;;;;29.05;11.32;;;19.60;99.90;;;;;;5094321;28;20438;-80
2022/10/24 05:13:28;;;;;;;22.27;10.77;;;19.70;99.90;;;;;;5093857;28;20488;-80
2022/10/24 05:15:54;;;;;;;21.58;11.77;;;19.60;99.90;;;;;;5093829;28;20027;-80
2022/10/24 05:18:19;;;;;;;25.55;11.80;;;19.70;99.90;;;;;;5094109;28;20033;-80
2022/10/24 05:20:45;;;;;;;29.38;11.13;;;19.60;99.90;;;;;;5093583;28;20020;-80
2022/10/24 05:23:11;;;;;;;27.50;11.27;;;19.50;99.90;;;;;;5093906;28;20024;-80
2022/10/24 05:25:36;;;;;;;25.60;11.18;;;19.60;99.90;;;;;;5093671;28;20020;-80
2022/10/24 05:28:02;;;;;;;26.60;10.48;;;19.60;99.90;;;;;;5093908;28;20024;-80
2022/10/24 05:30:28;;;;;;;35.00;11.35;;;19.60;99.90;;;;;;5093769;28;20547;-80
2022/10/24 05:32:53;;;;;;;27.63;10.35;;;19.70;99.90;;;;;;5093282;28;20180;-80
2022/10/24 05:35:19;;;;;;;24.52;10.90;;;19.70;99.90;;;;;;5093156;28;20153;-80
2022/10/24 05:37:45;;;;;;;26.08;10.07;;;19.70;99.90;;;;;;5092835;28;20020;-80
2022/10/24 05:40:11;;;;;;;28.95;10.57;;;19.60;99.90;;;;;;5093564;28;20520;-80
2022/10/24 05:42:37;;;;;;;21.05;10.45;;;19.50;99.90;;;;;;5093558;28;20036;-80
2022/10/24 05:45:05;;;;;;;22.20;9.35;;;19.60;99.90;;;;;;5093407;28;20112;-80
2022/10/24 05:47:31;;;;;;;29.90;11.35;;;19.60;99.90;;;;;;5093382;28;20552;-80
2022/10/24 05:49:56;;;;;;;25.80;10.60;;;19.70;99.90;;;;;;5092996;28;20035;-80
2022/10/24 05:52:22;;;;;;;25.73;10.40;;;19.60;99.90;;;;;;5093255;28;20384;-80
2022/10/24 05:54:48;;;;;;;26.42;10.45;;;19.60;99.90;;;;;;5093517;28;20035;-80
2022/10/24 05:57:13;;;;;;;27.25;10.73;;;19.60;99.90;;;;;;5093261;28;20024;-80
2022/10/24 05:59:39;;;;;;;19.90;9.95;;;19.50;99.90;;;;;;5093179;28;20392;-80
2022/10/24 06:02:04;;;;;;;23.65;10.07;;;19.50;99.90;;;;;;5093202;28;20016;-80
2022/10/24 06:04:30;;;;;;;25.83;10.63;;;19.50;99.90;;;;;;5092713;28;20024;-80
2022/10/24 06:06:56;;;;;;;22.48;10.15;;;19.50;99.90;;;;;;5093000;28;20020;-80
2022/10/24 06:09:21;;;;;;;27.77;10.32;;;19.50;99.90;;;;;;5093090;28;20051;-80
2022/10/24 06:11:47;;;;;;;26.58;9.98;;;19.50;99.90;;;;;;5092993;28;20391;-80
2022/10/24 06:14:13;;;;;;;21.88;10.48;;;19.50;99.90;;;;;;5091697;28;20063;-80
2022/10/24 06:16:38;;;;;;;26.65;10.27;;;19.50;99.90;;;;;;5092731;28;20024;-81
2022/10/24 06:19:04;;;;;;;21.77;9.90;;;19.40;99.90;;;;;;5092527;28;20498;-80
2022/10/24 06:21:29;;;;;;;26.95;10.15;;;19.40;99.90;;;;;;5093002;28;20077;-80
2022/10/24 06:23:56;;;;;;;29.50;10.10;;;19.40;99.90;;;;;;5092831;28;20034;-80
2022/10/24 06:26:21;;;;;;;26.58;10.20;;;19.40;99.90;;;;;;5092776;28;20052;-81
2022/10/24 06:28:47;;;;;;;25.60;10.25;;;19.40;99.90;;;;;;5092876;28;20078;-80
2022/10/24 06:31:12;;;;;;;18.65;9.48;;;19.40;99.90;;;;;;5092644;28;20031;-80
2022/10/24 06:33:39;;;;;;;28.27;10.38;;;19.40;99.90;;;;;;5092348;28;20036;-81
2022/10/24 06:36:08;;;;;;;24.02;9.70;;;19.30;99.90;;;;;;5092798;28;20024;-80
2022/10/24 06:38:35;;;;;;;18.90;9.23;;;19.30;99.90;;;;;;5092597;28;20107;-80
2022/10/24 06:41:08;;;;;;;28.80;10.30;;;19.40;99.90;;;;;;5092755;28;20065;-80
2022/10/24 06:43:35;;;;;;;27.27;9.65;;;19.30;99.90;;;;;;5092700;28;20429;-80
2022/10/24 06:46:05;;;;;;;25.10;9.73;;;19.20;99.90;;;;;;5092438;28;20028;-80
2022/10/24 06:48:31;;;;;;;26.92;12.63;;;19.30;99.90;;;;;;5093048;28;20020;-80
2022/10/24 06:50:57;;;;;;;21.88;10.15;;;19.30;99.90;;;;;;5096744;28;20047;-81
2022/10/24 06:53:22;;;;;;;24.67;10.55;;;19.30;99.90;;;;;;5096730;28;20078;-81
2022/10/24 06:55:48;;;;;;;26.67;10.20;;;19.20;99.90;;;;;;5096794;28;20051;-81
2022/10/24 06:58:13;;;;;;;25.75;10.40;;;19.20;99.90;;;;;;5096681;28;20028;-81
2022/10/24 07:00:39;;;;;;;19.42;10.20;;;19.20;99.90;;;;;;5096806;28;20042;-81
2022/10/24 07:03:05;;;;;;;31.20;10.95;;;19.10;99.90;;;;;;5096251;28;20035;-80
2022/10/24 07:05:30;;;;;;;24.02;10.77;;;19.10;99.90;;;;;;5096531;28;20084;-80
2022/10/24 07:07:56;;;;;;;23.35;9.88;;;19.00;99.90;;;;;;5096665;28;20025;-80
2022/10/24 07:10:21;;;;;;;29.33;10.25;;;19.00;99.90;;;;;;5096446;28;20024;-81
2022/10/24 07:12:47;;;;;;;19.70;9.70;;;19.10;99.90;;;;;;5096456;28;20087;-80
2022/10/24 07:15:13;;;;;;;23.45;10.15;;;19.20;99.90;;;;;;5096316;28;20021;-80
2022/10/24 07:17:43;;;;;;;24.38;10.75;;;19.30;99.90;;;;;;5095862;28;20115;-80
2022/10/24 07:20:10;;;;;;;25.35;10.82;;;19.50;99.90;;;;;;5096376;28;20016;-80
2022/10/24 07:22:36;;;;;;;27.80;11.82;;;19.50;99.90;;;;;;5096181;28;20522;-81
2022/10/24 07:25:04;;;;;;;27.52;10.68;;;19.30;99.90;;;;;;5096084;28;20103;-80
2022/10/24 07:27:30;;;;;;;25.52;11.98;;;19.20;99.90;;;;;;5096105;28;20032;-81
2022/10/24 07:29:55;;;;;;;33.47;12.13;;;19.30;99.90;;;;;;5096182;28;20028;-81
2022/10/24 07:32:21;;;;;;;25.73;11.38;;;19.50;99.90;;;;;;5094076;28;20044;-80
2022/10/24 07:34:47;;;;;;;24.13;10.40;;;19.50;99.90;;;;;;5096068;28;20407;-81
2022/10/24 07:37:14;;;;;;;23.75;10.15;;;19.60;99.90;;;;;;5095845;28;20032;-80
2022/10/24 07:39:40;;;;;;;27.08;10.00;;;19.70;99.90;;;;;;5095896;28;20095;-81
2022/10/24 07:42:05;;;;;;;26.67;10.10;;;19.80;99.90;;;;;;5095864;28;20063;-80
2022/10/24 07:44:31;;;;;;;21.83;9.90;;;19.90;99.90;;;;;;5095726;28;20024;-81
2022/10/24 07:46:56;;;;;;;21.17;8.98;;;19.90;99.90;;;;;;5095230;28;20411;-81
2022/10/24 07:49:22;;;;;;;18.90;8.95;;;20.00;99.90;;;;;;5095904;28;20032;-81
2022/10/24 07:51:48;;;;;;;26.02;9.18;;;20.10;99.90;;;;;;5095614;28;20028;-80
2022/10/24 07:54:13;;;;;;;18.50;9.13;;;20.10;99.90;;;;;;5095544;28;20040;-80
2022/10/24 07:56:39;;;;;;;18.13;8.45;;;20.20;99.90;;;;;;5095567;28;20557;-80
2022/10/24 07:59:05;;;;;;;19.65;8.77;;;20.10;99.90;;;;;;5095561;28;20476;-81
2022/10/24 08:01:30;;;;;;;22.17;8.43;;;20.30;99.90;;;;;;5094374;28;20472;-81
2022/10/24 08:03:56;;;;;;;25.85;8.65;;;20.50;99.90;;;;;;5095459;28;20016;-80
2022/10/24 08:06:27;;;;;;;24.70;7.85;;;20.30;99.90;;;;;;5095401;28;20035;-80
2022/10/24 08:08:52;;;;;;;27.67;8.98;;;20.60;99.90;;;;;;5094135;28;20111;-81
2022/10/24 08:11:21;;;;;;;20.92;8.07;;;20.20;99.90;;;;;;5095565;28;20070;-81
2022/10/24 08:13:47;;;;;;;19.95;8.80;;;19.70;99.90;;;;;;5094977;28;20620;-80
2022/10/24 08:16:15;;;;;;;17.05;8.80;;;19.60;99.90;;;;;;5094954;28;20028;-80
2022/10/24 08:18:41;;;;;;;20.48;8.60;;;19.10;99.90;;;;;;5095202;28;20106;-80
2022/10/24 08:21:09;;;;;;;21.45;8.38;;;18.90;99.90;;;;;;5095178;28;20103;-80
2022/10/24 08:23:37;;;;;;;18.60;8.20;;;18.90;99.90;;;;;;5094998;28;20370;-80
2022/10/24 08:26:07;;;;;;;19.90;8.20;;;18.80;99.90;;;;;;5095036;28;20024;-81
2022/10/24 08:28:33;;;;;;;26.85;9.45;;;18.60;99.90;;;;;;5094956;28;20038;-80
2022/10/24 08:31:02;;;;;;;20.45;9.52;;;18.70;99.90;;;;;;5094415;28;20435;-80
2022/10/24 08:33:28;;;;;;;24.15;8.50;;;18.70;99.90;;;;;;5094625;28;20423;-80
2022/10/24 08:35:56;;;;;;;22.30;9.55;;;18.60;99.90;;;;;;5094828;28;20016;-80
2022/10/24 08:38:22;;;;;;;26.48;9.15;;;18.70;99.90;;;;;;5094695;28;20032;-80
2022/10/24 08:40:48;;;;;;;20.52;9.38;;;18.60;99.90;;;;;;5094732;28;20039;-80
2022/10/24 08:43:15;;;;;;;23.80;8.90;;;18.60;99.90;;;;;;5094750;28;20028;-80
2022/10/24 08:46:06;;;;;;;25.20;9.07;;;18.70;99.90;;;;;;5094144;28;20058;-81
2022/10/24 08:48:45;;;;;;;24.65;9.50;;;18.70;99.90;;;;;;5094480;28;20055;-80
2022/10/24 08:51:40;;;;;;;22.73;8.70;;;18.60;99.90;;;;;;5094442;28;20023;-81
2022/10/24 08:54:19;;;;;;;21.20;9.73;;;18.50;99.90;;;;;;5091839;28;20547;-80
2022/10/24 08:56:44;;;;;;;25.38;9.32;;;18.50;99.90;;;;;;5094341;28;20108;-80
2022/10/24 08:59:11;;;;;;;23.55;9.73;;;18.50;99.90;;;;;;5093992;28;20069;-80
2022/10/24 09:01:49;;;;;;;22.77;9.20;;;18.50;99.90;;;;;;5094311;28;20035;-81
2022/10/24 09:04:18;;;;;;;25.35;9.10;;;18.50;99.90;;;;;;5094311;28;20035;-80
2022/10/24 09:06:45;;;;;;;19.98;8.73;;;18.50;99.90;;;;;;5094454;28;20494;-80
2022/10/24 09:09:31;;;;;;;25.20;9.27;;;18.30;99.90;;;;;;5094329;28;20023;-80
2022/10/24 09:12:13;;;;;;;26.10;9.75;;;18.10;99.90;;;;;;5093170;28;20020;-80
2022/10/24 09:14:41;;;;;;;25.25;10.65;;;18.30;99.90;;;;;;5093593;28;20089;-80
2022/10/24 09:17:22;;;;;;;23.40;10.15;;;18.40;99.90;;;;;;5092599;28;20533;-80
2022/10/24 09:19:58;;;;;;;20.38;9.45;;;18.40;99.90;;;;;;5093971;28;20032;-80
2022/10/24 09:22:27;;;;;;;25.38;10.98;;;18.30;99.90;;;;;;5093967;28;20035;-80
2022/10/24 09:25:00;;;;;;;19.98;9.68;;;18.40;99.90;;;;;;5093926;28;20041;-80
2022/10/24 09:27:37;;;;;;;19.75;9.40;;;18.40;99.90;;;;;;5093614;28;20321;-80
2022/10/24 09:30:05;;;;;;;19.58;8.27;;;18.30;99.90;;;;;;5092610;28;20032;-80
2022/10/24 09:32:34;;;;;;;16.45;7.95;;;18.10;99.90;;;;;;5093318;28;20136;-80
2022/10/24 09:35:03;;;;;;;20.52;8.15;;;17.80;99.90;;;;;;5093490;28;20511;-80
2022/10/24 09:37:43;;;;;;;11.32;5.03;;;17.80;99.90;;;;;;5093501;28;20103;-80
2022/10/24 09:40:17;;;;;;;10.25;4.47;;;17.40;99.90;;;;;;5093561;28;20479;-81
2022/10/24 09:42:50;;;;;;;7.38;3.20;;;17.50;99.90;;;;;;5093242;28;20020;-80
2022/10/24 09:45:29;;;;;;;7.38;2.67;;;17.50;99.90;;;;;;5093468;28;20035;-80
2022/10/24 09:48:01;;;;;;;8.65;2.72;;;17.30;99.90;;;;;;5093409;28;20077;-80
2022/10/24 09:50:27;;;;;;;9.10;2.05;;;17.40;99.90;;;;;;5093247;28;20028;-80
2022/10/24 09:52:56;;;;;;;6.47;2.00;;;17.30;99.90;;;;;;5093431;28;20078;-80
2022/10/24 09:55:27;;;;;;;3.47;1.70;;;17.00;99.90;;;;;;5093284;28;20384;-79
2022/10/24 09:57:59;;;;;;;4.13;2.22;;;16.90;99.90;;;;;;5093011;28;20584;-80
2022/10/24 10:00:31;;;;;;;3.47;1.63;;;17.00;99.90;;;;;;5093246;28;20085;-80
2022/10/24 10:03:03;;;;;;;4.88;2.15;;;17.00;99.90;;;;;;5093016;28;20512;-80
2022/10/24 10:05:42;;;;;;;3.92;2.20;;;16.70;99.90;;;;;;5093120;28;20028;-80
2022/10/24 10:08:17;;;;;;;4.63;2.00;;;16.80;99.90;;;;;;5093300;28;20377;-80
2022/10/24 10:11:00;;;;;;;6.20;2.20;;;16.80;99.90;;;;;;5092760;28;20055;-80
2022/10/24 10:13:27;;;;;;;3.42;1.90;;;16.80;99.90;;;;;;5093042;28;20063;-80
2022/10/24 10:16:01;;;;;;;4.53;2.05;;;16.60;99.90;;;;;;5093032;28;20031;-80
2022/10/24 10:18:39;;;;;;;4.28;2.15;;;16.70;99.90;;;;;;5092931;28;20032;-80
2022/10/24 10:21:20;;;;;;;9.80;3.17;;;17.20;99.90;;;;;;5092834;28;20026;-80
2022/10/24 10:23:51;;;;;;;6.85;3.00;;;17.50;99.90;;;;;;5092565;28;20019;-80
2022/10/24 10:26:26;;;;;;;8.50;3.30;;;17.50;99.90;;;;;;5092362;28;20043;-80
2022/10/24 10:29:03;;;;;;;6.28;2.78;;;18.00;99.90;;;;;;5092947;28;20035;-80
2022/10/24 10:31:36;;;;;;;5.25;2.80;;;18.50;99.90;;;;;;5092471;28;20408;-80
2022/10/24 10:34:22;;;;;;;5.70;2.70;;;19.60;99.90;;;;;;5072527;28;20405;-80
2022/10/24 10:37:14;;;;;;;5.53;2.83;;;22.30;99.90;;;;;;5072579;28;20397;-80
2022/10/24 10:39:55;;;;;;;6.28;2.70;;;21.00;99.90;;;;;;5072044;28;20099;-81
2022/10/24 10:42:29;;;;;;;7.03;2.10;;;22.60;99.90;;;;;;5072491;28;20037;-81
2022/10/24 10:45:04;;;;;;;4.05;2.30;;;23.30;99.90;;;;;;5072594;28;20081;-80
2022/10/24 10:47:48;;;;;;;6.65;2.58;;;24.10;1.00;;;;;;5072384;28;20032;-80
2022/10/24 10:50:24;;;;;;;6.30;2.65;;;23.50;1.00;;;;;;5052515;28;20060;-80
2022/10/24 10:52:50;;;;;;;8.45;3.05;;;23.70;1.00;;;;;;5050919;28;20040;-80
2022/10/24 10:55:36;;;;;;;5.72;3.47;;;23.50;1.00;;;;;;5052020;28;20025;-81
2022/10/24 10:58:20;;;;;;;5.75;3.53;;;26.50;99.90;;;;;;5052434;28;20024;-81
2022/10/24 11:01:09;;;;;;;8.77;3.50;;;24.30;99.90;;;;;;5052407;28;20553;-80
2022/10/24 11:03:53;;;;;;;5.68;3.67;;;23.90;99.90;;;;;;5052211;28;20021;-80
2022/10/24 11:06:30;;;;;;;6.80;2.97;;;23.20;99.90;;;;;;5052221;28;20029;-81
2022/10/24 11:09:20;;;;;;;5.47;3.83;;;28.10;99.90;;;;;;5050558;28;20087;-80
2022/10/24 11:11:50;;;;;;;7.47;3.65;;;27.70;99.90;;;;;;5052305;28;20091;-81
2022/10/24 11:14:27;;;;;;;8.90;4.45;;;24.80;99.90;;;;;;5052032;28;20121;-81
2022/10/24 11:16:56;;;;;;;8.20;4.20;;;23.40;99.90;;;;;;5052144;28;20021;-80
2022/10/24 11:19:40;;;;;;;8.68;4.25;;;23.50;99.90;;;;;;5064086;28;20029;-80
2022/10/24 11:22:14;;;;;;;8.63;4.15;;;23.30;99.90;;;;;;5071986;28;20481;-81
2022/10/24 11:24:48;;;;;;;10.85;4.75;;;22.90;99.90;;;;;;5071705;28;20162;-80
2022/10/24 11:27:21;;;;;;;7.63;4.10;;;22.20;99.90;;;;;;5071967;28;20481;-80
2022/10/24 11:29:54;;;;;;;9.85;4.18;;;22.00;99.90;;;;;;5072075;28;20028;-80
2022/10/24 11:32:48;;;;;;;11.90;5.20;;;21.70;99.90;;;;;;5071583;28;20050;-80
2022/10/24 11:35:39;;;;;;;9.27;4.55;;;22.20;99.90;;;;;;5072230;28;20052;-80
2022/10/24 11:38:19;;;;;;;8.57;4.65;;;22.00;99.90;;;;;;5075246;28;20052;-80
2022/10/24 11:40:50;;;;;;;12.65;5.15;;;21.90;99.90;;;;;;5075655;28;20025;-80
2022/10/24 11:43:23;;;;;;;13.15;4.85;;;22.00;99.90;;;;;;5075672;28;20039;-80
2022/10/24 11:45:53;;;;;;;11.95;5.25;;;22.20;99.90;;;;;;5075358;28;20549;-80
2022/10/24 11:48:37;;;;;;;14.52;5.55;;;22.20;99.90;;;;;;5075623;28;20544;-80
2022/10/24 11:51:11;;;;;;;12.70;5.45;;;22.30;99.90;;;;;;5075063;28;20028;-80
2022/10/24 11:53:38;;;;;;;13.02;5.03;;;22.30;99.90;;;;;;5074871;28;20447;-80
2022/10/24 11:56:10;;;;;;;11.60;5.35;;;22.10;99.90;;;;;;5075399;28;20016;-80
2022/10/24 11:58:53;;;;;;;11.18;5.70;;;21.90;99.90;;;;;;5075299;28;20028;-80
2022/10/24 12:01:39;;;;;;;12.57;5.47;;;22.00;99.90;;;;;;5075310;28;20036;-80
2022/10/24 12:04:32;;;;;;;11.73;5.90;;;21.90;99.90;;;;;;5075114;28;20501;-80
2022/10/24 12:07:34;;;;;;;13.25;5.47;;;21.60;99.90;;;;;;5074732;28;20043;-80
2022/10/24 12:10:18;;;;;;;14.07;5.03;;;21.50;99.90;;;;;;5075039;28;20503;-80
2022/10/24 12:12:51;;;;;;;17.48;6.00;;;21.20;99.90;;;;;;5073704;28;20032;-80
2022/10/24 12:15:29;;;;;;;15.43;5.45;;;21.20;99.90;;;;;;5074803;28;20102;-80
2022/10/24 12:18:20;;;;;;;12.57;5.45;;;21.10;99.90;;;;;;5074965;28;20036;-80
2022/10/24 12:20:51;;;;;;;12.23;5.38;;;20.90;99.90;;;;;;4973801;28;20038;-80
2022/10/24 12:23:21;;;;;;;15.18;5.55;;;20.80;99.90;;;;;;4973642;28;20555;-80
2022/10/24 12:26:00;;;;;;;14.55;5.40;;;20.80;99.90;;;;;;4957594;28;20118;-80
2022/10/24 12:28:25;;;;;;;15.57;5.38;;;20.80;99.90;;;;;;4973973;28;20106;-80
2022/10/24 12:31:08;;;;;;;10.23;5.45;;;20.70;99.90;;;;;;4973785;28;20488;-81
2022/10/24 12:33:34;;;;;;;16.67;6.55;;;20.60;99.90;;;;;;4973654;28;20499;-80
2022/10/24 12:36:00;;;;;;;11.10;5.70;;;20.50;99.90;;;;;;4973389;28;20026;-80
2022/10/24 12:38:28;;;;;;;15.13;6.82;;;20.30;99.90;;;;;;4973623;28;20144;-80
2022/10/24 12:40:57;;;;;;;15.75;6.82;;;20.20;99.90;;;;;;4973792;28;20070;-80
2022/10/24 12:43:47;;;;;;;16.75;6.80;;;20.20;99.90;;;;;;4973735;28;20035;-80
2022/10/24 12:46:13;;;;;;;18.75;7.53;;;20.20;99.90;;;;;;4973395;28;20546;-80
2022/10/24 12:48:42;;;;;;;20.80;8.25;;;20.10;99.90;;;;;;4973608;28;20031;-80
2022/10/24 12:51:30;;;;;;;20.52;8.57;;;20.10;99.90;;;;;;4973023;28;20133;-80
2022/10/24 12:54:10;;;;;;;20.20;8.32;;;19.90;99.90;;;;;;4973363;28;20554;-80